createdAt,value
2022-11-17T00:02:09.319Z,98690.75
2022-11-17T00:05:11.119Z,98688.13
2022-11-17T00:08:13.052Z,98677.56
2022-11-17T00:11:15.135Z,98646.84
2022-11-17T01:37:29.244Z,98510.44
2022-11-17T01:40:30.640Z,98518.91
2022-11-17T01:43:49.591Z,98510.16
2022-11-17T01:46:51.379Z,98495.16
2022-11-17T01:50:00.798Z,98505.66
2022-11-17T01:53:07.219Z,98513.56
2022-11-17T01:56:13.584Z,98495.25
2022-11-17T01:59:22.886Z,98491.59
2022-11-17T02:02:24.299Z,98491.41
2022-11-17T02:05:45.272Z,98487.84
2022-11-17T02:08:48.505Z,98481.66
2022-11-17T02:11:50.502Z,98475.28
2022-11-17T02:14:53.664Z,98473.38
2022-11-17T02:17:55.992Z,98463.72
2022-11-17T02:21:03.483Z,98461.16
2022-11-17T02:24:45.452Z,98456.56
2022-11-17T02:27:55.017Z,98457.41
2022-11-17T02:31:11.984Z,98473.09
2022-11-17T02:34:27.215Z,98460.78
2022-11-17T02:37:37.976Z,98455.53
2022-11-17T02:41:04.130Z,98455.44
2022-11-17T02:44:21.283Z,98444.84
2022-11-17T02:47:32.394Z,98436.19
2022-11-17T02:50:36.182Z,98442.19
2022-11-17T02:53:39.423Z,98432.63
2022-11-17T02:56:42.621Z,98436.19
2022-11-17T02:59:47.236Z,98414.38
2022-11-17T03:03:19.472Z,98421.69
2022-11-17T03:06:45.823Z,98402.25
2022-11-17T03:10:09.491Z,98416.34
2022-11-17T03:13:18.976Z,98399.34
2022-11-17T03:16:37.476Z,98402.91
2022-11-17T03:19:47.408Z,98389.66
2022-11-17T03:23:02.426Z,98386.09
2022-11-17T03:26:07.575Z,98376.59
2022-11-17T03:29:13.459Z,98367.78
2022-11-17T03:32:16.344Z,98366.53
2022-11-17T03:35:23.762Z,98352.91
2022-11-17T03:38:29.732Z,98352.31
2022-11-17T03:41:35.964Z,98347.63
2022-11-17T03:44:42.086Z,98341.03
2022-11-17T03:47:44.864Z,98344.78
2022-11-17T03:51:07.931Z,98332.78
2022-11-17T03:54:09.827Z,98333.53
2022-11-17T03:57:36.504Z,98342.91
2022-11-17T04:00:40.544Z,98323.44
2022-11-17T04:03:42.012Z,98319.59
2022-11-17T04:06:43.468Z,98322.41
2022-11-17T04:09:44.902Z,98327.09
2022-11-17T04:12:47.532Z,98319.13
2022-11-17T04:15:48.952Z,98319.78
2022-11-17T04:18:53.336Z,98321.84
2022-11-17T04:21:57.314Z,98306.63
2022-11-17T04:24:58.730Z,98305.13
2022-11-17T04:28:00.134Z,98298.00
2022-11-17T04:31:01.560Z,98303.44
2022-11-17T04:34:05.006Z,98295.84
2022-11-17T04:37:08.367Z,98306.28
2022-11-17T04:40:10.493Z,98300.28
2022-11-17T04:43:11.897Z,98295.84
2022-11-17T04:46:13.608Z,98295.84
2022-11-17T04:49:16.881Z,98311.75
2022-11-17T04:52:18.330Z,98293.50
2022-11-17T04:55:19.776Z,98292.75
2022-11-17T04:58:21.184Z,98299.63
2022-11-17T05:01:23.792Z,98293.63
2022-11-17T05:04:25.213Z,98290.13
2022-11-17T05:07:26.697Z,98284.97
2022-11-17T05:10:28.161Z,98275.19
2022-11-17T05:13:29.587Z,98285.63
2022-11-17T05:16:31.082Z,98276.22
2022-11-17T05:19:34.848Z,98276.22
2022-11-17T05:22:36.318Z,98279.81
2022-11-17T05:25:37.730Z,98286.75
2022-11-17T05:28:39.428Z,98281.69
2022-11-17T05:31:41.264Z,98279.72
2022-11-17T05:34:42.823Z,98255.16
2022-11-17T05:37:44.232Z,98283.47
2022-11-17T05:40:45.643Z,98293.53
2022-11-17T05:43:47.457Z,98274.09
2022-11-17T05:46:48.905Z,98273.25
2022-11-17T05:49:50.316Z,98259.97
2022-11-17T05:52:51.796Z,98278.50
2022-11-17T05:56:25.408Z,98280.19
2022-11-17T05:59:50.986Z,98283.66
2022-11-17T06:03:07.956Z,98269.28
2022-11-17T06:06:09.584Z,98274.34
2022-11-17T06:09:11.913Z,98271.50
2022-11-17T06:12:13.366Z,98266.16
2022-11-17T06:15:14.963Z,98272.28
2022-11-17T06:18:19.555Z,98274.91
2022-11-17T06:21:21.364Z,98277.34
2022-11-17T06:24:23.421Z,98287.88
2022-11-17T06:27:25.998Z,98283.53
2022-11-17T06:30:28.746Z,98289.56
2022-11-17T06:33:31.920Z,98289.56
2022-11-17T06:36:33.900Z,98288.69
2022-11-17T06:39:35.362Z,98294.06
2022-11-17T06:42:38.807Z,98290.88
2022-11-17T06:45:42.727Z,98290.34
2022-11-17T06:48:44.293Z,98291.28
2022-11-17T06:51:45.875Z,98295.59
2022-11-17T06:54:47.358Z,98299.91
2022-11-17T06:57:53.260Z,98302.94
2022-11-17T07:01:01.249Z,98303.03
2022-11-17T07:04:02.774Z,98306.69
2022-11-17T07:07:04.369Z,98309.31
2022-11-17T07:10:06.387Z,98319.94
2022-11-17T07:13:07.885Z,98314.13
2022-11-17T07:16:22.917Z,98307.25
2022-11-17T07:19:24.885Z,98324.00
2022-11-17T07:22:26.338Z,98322.47
2022-11-17T07:25:27.827Z,98328.13
2022-11-17T07:28:29.911Z,98331.81
2022-11-17T07:31:31.346Z,98342.41
2022-11-17T07:34:32.861Z,98343.44
2022-11-17T07:37:34.362Z,98352.16
2022-11-17T07:40:36.214Z,98341.63
2022-11-17T07:43:37.823Z,98344.47
2022-11-17T07:46:39.318Z,98353.47
2022-11-17T07:49:40.856Z,98353.59
2022-11-17T07:52:42.367Z,98352.91
2022-11-17T07:55:43.916Z,98356.47
2022-11-17T07:58:45.464Z,98361.72
2022-11-17T08:01:47.081Z,98360.06
2022-11-17T08:04:48.644Z,98359.09
2022-11-17T08:07:57.789Z,98357.44
2022-11-17T08:11:07.232Z,98359.09
2022-11-17T08:14:08.753Z,98370.56
2022-11-17T08:17:10.324Z,98368.66
2022-11-17T08:20:12.172Z,98372.25
2022-11-17T08:23:13.784Z,98382.75
2022-11-17T08:26:15.238Z,98381.09
2022-11-17T08:29:16.852Z,98387.00
2022-11-17T08:32:18.317Z,98377.16
2022-11-17T08:35:21.963Z,98386.44
2022-11-17T08:38:23.821Z,98394.22
2022-11-17T08:41:25.330Z,98392.47
2022-11-17T08:44:26.834Z,98391.72
2022-11-17T08:47:28.332Z,98396.13
2022-11-17T08:50:30.061Z,98401.19
2022-11-17T08:53:31.815Z,98407.31
2022-11-17T08:56:33.303Z,98411.72
2022-11-17T08:59:34.820Z,98415.97
2022-11-17T09:02:38.362Z,98416.69
2022-11-17T09:05:42.561Z,98414.75
2022-11-17T09:08:45.934Z,98418.03
2022-11-17T09:11:48.753Z,98438.97
2022-11-17T09:14:50.212Z,98427.44
2022-11-17T09:17:51.947Z,98442.75
2022-11-17T09:20:59.231Z,98444.63
2022-11-17T09:24:00.832Z,98446.59
2022-11-17T09:27:02.422Z,98459.72
2022-11-17T09:30:04.478Z,98454.47
2022-11-17T09:33:05.989Z,98451.91
2022-11-17T09:36:08.051Z,98458.09
2022-11-17T09:39:09.747Z,98457.56
2022-11-17T09:42:22.120Z,98466.38
2022-11-17T09:45:28.808Z,98465.50
2022-11-17T09:48:47.570Z,98476.69
2022-11-17T09:51:50.577Z,98477.56
2022-11-17T09:54:56.435Z,98481.94
2022-11-17T09:58:15.094Z,98489.94
2022-11-17T10:01:18.795Z,98496.72
2022-11-17T10:04:20.290Z,98494.16
2022-11-17T10:07:22.035Z,98492.47
2022-11-17T10:10:51.014Z,98507.31
2022-11-17T10:13:52.575Z,98506.31
2022-11-17T10:16:56.765Z,98505.28
2022-11-17T10:19:58.174Z,98505.28
2022-11-17T10:23:02.806Z,98509.78
2022-11-17T10:26:09.490Z,98512.78
2022-11-17T10:29:21.745Z,98520.84
2022-11-17T10:32:23.248Z,98521.88
2022-11-17T10:35:27.977Z,98521.00
2022-11-17T10:38:30.618Z,98532.47
2022-11-17T10:41:42.137Z,98522.88
2022-11-17T10:44:46.982Z,98535.03
2022-11-17T10:47:48.398Z,98546.47
2022-11-17T10:50:57.213Z,98542.16
2022-11-17T10:54:05.673Z,98543.06
2022-11-17T10:57:14.538Z,98551.72
2022-11-17T11:00:30.663Z,98555.19
2022-11-17T11:03:34.866Z,98543.75
2022-11-17T11:06:36.599Z,98551.47
2022-11-17T11:09:47.219Z,98559.19
2022-11-17T11:13:01.858Z,98556.44
2022-11-17T11:16:03.465Z,98564.63
2022-11-17T11:19:12.835Z,98561.81
2022-11-17T11:22:33.769Z,98577.00
2022-11-17T11:25:43.198Z,98579.97
2022-11-17T11:29:05.408Z,98580.41
2022-11-17T11:32:23.733Z,98590.22
2022-11-17T11:35:39.672Z,98592.13
2022-11-17T11:38:55.608Z,98580.03
2022-11-17T11:42:09.117Z,98589.03
2022-11-17T11:45:26.568Z,98589.13
2022-11-17T11:48:31.643Z,98591.06
2022-11-17T11:51:37.889Z,98602.25
2022-11-17T11:54:51.066Z,98596.13
2022-11-17T11:58:05.467Z,98573.41
2022-11-17T12:01:08.413Z,98582.06
2022-11-17T12:04:34.887Z,98574.94
2022-11-17T12:08:11.358Z,98595.50
2022-11-17T12:11:16.361Z,98598.38
2022-11-17T12:14:19.223Z,98602.59
2022-11-17T12:17:20.742Z,98603.34
2022-11-17T12:20:31.093Z,98606.16
2022-11-17T12:23:35.889Z,98606.25
2022-11-17T12:26:37.612Z,98599.47
2022-11-17T12:29:46.617Z,98607.19
2022-11-17T12:32:48.066Z,98617.03
2022-11-17T12:36:29.699Z,98615.34
2022-11-17T12:40:00.887Z,98626.03
2022-11-17T12:43:14.465Z,98626.13
2022-11-17T12:46:26.142Z,98633.16
2022-11-17T12:49:52.664Z,98629.69
2022-11-17T12:53:09.518Z,98630.63
2022-11-17T12:56:27.377Z,98625.53
2022-11-17T12:59:51.753Z,98633.50
2022-11-17T13:02:57.410Z,98647.91
2022-11-17T13:06:34.493Z,98656.97
2022-11-17T13:09:36.106Z,98674.69
2022-11-17T13:12:37.621Z,98679.16
2022-11-17T13:15:40.952Z,98669.41
2022-11-17T13:18:43.065Z,98671.06
2022-11-17T13:21:45.322Z,98683.19
2022-11-17T13:24:48.894Z,98676.81
2022-11-17T13:27:56.038Z,98677.84
2022-11-17T13:31:01.437Z,98689.28
2022-11-17T13:34:07.549Z,98694.47
2022-11-17T13:37:15.539Z,98706.69
2022-11-17T13:40:22.282Z,98701.56
2022-11-17T13:43:26.343Z,98706.94
2022-11-17T13:46:27.923Z,98700.66
2022-11-17T13:49:34.806Z,98686.50
2022-11-17T13:52:43.659Z,98686.25
2022-11-17T13:55:47.381Z,98690.69
2022-11-17T13:58:50.805Z,98688.28
2022-11-17T14:02:16.988Z,98692.69
2022-11-17T14:05:19.953Z,98709.75
2022-11-17T14:08:24.996Z,98701.19
2022-11-17T14:11:26.880Z,98717.56
2022-11-17T14:14:33.997Z,98713.22
2022-11-17T14:17:35.521Z,98722.72
2022-11-17T14:20:36.965Z,98720.00
2022-11-17T14:23:39.281Z,98720.00
2022-11-17T14:26:43.066Z,98725.09
2022-11-17T14:29:44.722Z,98735.09
2022-11-17T14:32:46.315Z,98730.34
2022-11-17T14:35:54.235Z,98724.44
2022-11-17T14:38:55.848Z,98729.44
2022-11-17T14:41:57.329Z,98740.72
2022-11-17T14:44:58.825Z,98735.97
2022-11-17T14:48:00.364Z,98734.09
2022-11-17T14:51:01.829Z,98734.25
2022-11-17T14:54:03.359Z,98747.31
2022-11-17T14:57:04.896Z,98740.03
2022-11-17T15:00:09.328Z,98742.75
2022-11-17T15:03:10.890Z,98753.84
2022-11-17T15:06:19.546Z,98752.09
2022-11-17T15:09:21.712Z,98755.47
2022-11-17T15:12:23.584Z,98762.16
2022-11-17T15:15:25.038Z,98769.00
2022-11-17T15:18:26.543Z,98779.91
2022-11-17T15:21:28.099Z,98773.81
2022-11-17T15:24:29.620Z,98780.09
2022-11-17T15:27:31.090Z,98779.16
2022-11-17T15:30:33.154Z,98783.69
2022-11-17T15:33:34.659Z,98782.50
2022-11-17T15:36:36.363Z,98785.34
2022-11-17T15:39:37.811Z,98794.44
2022-11-17T15:42:39.233Z,98807.53
2022-11-17T15:45:40.671Z,98799.47
2022-11-17T15:48:43.834Z,98803.03
2022-11-17T15:51:45.351Z,98805.69
2022-11-17T15:54:46.794Z,98802.94
2022-11-17T15:57:48.277Z,98812.13
2022-11-17T16:00:49.802Z,98809.81
2022-11-17T16:03:52.819Z,98817.97
2022-11-17T16:06:54.344Z,98817.03
2022-11-17T16:09:55.852Z,98829.44
2022-11-17T16:12:57.301Z,98834.13
2022-11-17T16:15:58.738Z,98827.31
2022-11-17T16:19:00.707Z,98831.75
2022-11-17T16:22:02.221Z,98829.19
2022-11-17T16:25:03.919Z,98836.16
2022-11-17T16:28:05.404Z,98841.75
2022-11-17T16:31:23.164Z,98847.53
2022-11-17T16:34:24.703Z,98851.88
2022-11-17T16:37:26.210Z,98847.03
2022-11-17T16:40:27.670Z,98850.34
2022-11-17T16:43:29.525Z,98854.56
2022-11-17T16:46:31.782Z,98864.53
2022-11-17T16:49:33.281Z,98861.47
2022-11-17T16:52:34.836Z,98862.00
2022-11-17T16:55:36.718Z,98860.59
2022-11-17T16:58:38.433Z,98858.59
2022-11-17T17:01:39.992Z,98866.28
2022-11-17T17:04:41.483Z,98877.78
2022-11-17T17:07:43.009Z,98876.00
2022-11-17T17:10:44.558Z,98884.91
2022-11-17T17:13:46.056Z,98892.03
2022-11-17T17:16:47.558Z,98899.53
2022-11-17T17:19:49.065Z,98898.75
2022-11-17T17:22:50.581Z,98906.66
2022-11-17T17:26:05.024Z,98906.31
2022-11-17T17:29:06.591Z,98915.31
2022-11-17T17:32:08.170Z,98932.28
2022-11-17T17:35:09.673Z,98929.19
2022-11-17T17:38:11.171Z,98938.91
2022-11-17T17:41:14.979Z,98942.81
2022-11-17T17:44:18.398Z,98952.75
2022-11-17T17:47:19.886Z,98944.16
2022-11-17T17:50:21.355Z,98947.72
2022-11-17T17:53:24.755Z,98956.78
2022-11-17T17:56:26.365Z,98953.91
2022-11-17T17:59:27.861Z,98964.50
2022-11-17T18:02:29.275Z,98973.50
2022-11-17T18:05:30.923Z,98971.81
2022-11-17T18:08:36.802Z,98988.53
2022-11-17T18:11:38.304Z,98983.03
2022-11-17T18:14:40.915Z,98995.75
2022-11-17T18:17:42.365Z,98983.94
2022-11-17T18:20:43.813Z,98994.47
2022-11-17T18:23:46.026Z,98996.28
2022-11-17T18:26:47.453Z,98995.50
2022-11-17T18:29:51.207Z,98998.59
2022-11-17T18:32:52.729Z,99005.72
2022-11-17T18:35:54.266Z,99009.97
2022-11-17T18:38:55.944Z,99012.38
2022-11-17T18:41:57.367Z,99015.31
2022-11-17T18:44:58.842Z,99012.94
2022-11-17T18:48:00.317Z,99027.25
2022-11-17T18:51:19.251Z,99018.63
2022-11-17T18:54:21.656Z,99028.72
2022-11-17T18:57:23.174Z,99027.78
2022-11-17T19:00:24.821Z,99051.59
2022-11-17T19:03:26.283Z,99031.97
2022-11-17T19:06:28.651Z,99039.22
2022-11-17T19:09:30.128Z,99041.41
2022-11-17T19:12:31.755Z,99058.72
2022-11-17T19:15:34.356Z,99055.00
2022-11-17T19:18:36.410Z,99056.41
2022-11-17T19:21:37.902Z,99057.19
2022-11-17T19:24:39.510Z,99054.91
2022-11-17T19:27:41.028Z,99064.19
2022-11-17T19:30:42.668Z,99062.72
2022-11-17T19:33:45.504Z,99069.13
2022-11-17T19:36:47.100Z,99069.06
2022-11-17T19:39:48.622Z,99084.50
2022-11-17T19:42:50.190Z,99078.41
2022-11-17T19:45:51.805Z,99084.91
2022-11-17T19:48:54.526Z,99093.16
2022-11-17T19:51:56.004Z,99100.28
2022-11-17T19:54:57.454Z,99109.34
2022-11-17T19:57:59.130Z,99100.13
2022-11-17T20:01:13.879Z,99108.03
2022-11-17T20:04:15.450Z,99119.00
2022-11-17T20:07:16.914Z,99122.03
2022-11-17T20:10:18.447Z,99122.44
2022-11-17T20:13:19.848Z,99131.19
2022-11-17T20:16:23.749Z,99122.84
2022-11-17T20:19:25.188Z,99142.97
2022-11-17T20:22:26.618Z,99146.28
2022-11-17T20:25:28.077Z,99149.50
2022-11-17T20:28:32.825Z,99162.50
2022-11-17T20:31:35.919Z,99162.63
2022-11-17T20:34:37.462Z,99157.50
2022-11-17T20:37:38.932Z,99176.56
2022-11-17T20:40:40.607Z,99185.59
2022-11-17T20:43:42.085Z,99191.63
2022-11-17T20:46:43.554Z,99198.94
2022-11-17T20:49:45.071Z,99199.94
2022-11-17T20:52:46.574Z,99209.78
2022-11-17T20:55:48.053Z,99212.63
2022-11-17T20:58:49.562Z,99221.22
2022-11-17T21:01:51.416Z,99220.00
2022-11-17T21:04:53.126Z,99232.00
2022-11-17T21:07:54.607Z,99223.13
2022-11-17T21:11:16.570Z,99241.84
2022-11-17T21:14:18.020Z,99246.50
2022-11-17T21:17:19.551Z,99237.56
2022-11-17T21:20:21.044Z,99250.31
2022-11-17T21:23:22.496Z,99256.13
2022-11-17T21:26:24.140Z,99260.09
2022-11-17T21:29:25.798Z,99253.09
2022-11-17T21:32:27.247Z,99265.41
2022-11-17T21:35:28.717Z,99266.91
2022-11-17T21:38:30.569Z,99266.72
2022-11-17T21:41:33.773Z,99278.53
2022-11-17T21:44:35.165Z,99281.09
2022-11-17T21:47:36.720Z,99282.94
2022-11-17T21:50:43.265Z,99284.75
2022-11-17T21:53:44.789Z,99286.91
2022-11-17T21:56:46.310Z,99293.44
2022-11-17T21:59:47.919Z,99305.59
2022-11-17T22:02:49.346Z,99299.28
2022-11-17T22:05:52.339Z,99304.69
2022-11-17T22:08:55.482Z,99301.38
2022-11-17T22:11:56.911Z,99309.16
2022-11-17T22:14:58.506Z,99315.59
2022-11-17T22:17:59.921Z,99326.94
2022-11-17T22:21:01.751Z,99325.38
2022-11-17T22:24:04.207Z,99329.72
2022-11-17T22:27:05.601Z,99321.78
2022-11-17T22:30:07.560Z,99329.72
2022-11-17T22:33:08.975Z,99338.47
2022-11-17T22:36:10.484Z,99342.09
2022-11-17T22:39:12.364Z,99339.59
2022-11-17T22:42:13.905Z,99345.53
2022-11-17T22:45:15.407Z,99345.63
2022-11-17T22:48:16.920Z,99351.75
2022-11-17T22:51:19.497Z,99354.13
2022-11-17T22:54:20.933Z,99360.41
2022-11-17T22:57:22.411Z,99369.81
2022-11-17T23:00:24.024Z,99364.59
2022-11-17T23:03:25.433Z,99373.13
2022-11-17T23:06:26.959Z,99383.41
2022-11-17T23:09:29.330Z,99392.50
2022-11-17T23:12:30.797Z,99396.69
2022-11-17T23:15:32.238Z,99398.66
2022-11-17T23:18:34.064Z,99396.03
2022-11-17T23:21:35.547Z,99406.59
2022-11-17T23:24:36.979Z,99401.69
2022-11-17T23:27:38.424Z,99415.47
2022-11-17T23:30:40.029Z,99412.03
2022-11-17T23:33:46.201Z,99417.69
2022-11-17T23:36:47.710Z,99420.88
2022-11-17T23:39:49.351Z,99419.56
2022-11-17T23:42:53.097Z,99417.91
2022-11-17T23:45:55.114Z,99417.22
2022-11-17T23:48:56.618Z,99426.25
2022-11-17T23:51:58.071Z,99427.25
2022-11-17T23:54:59.519Z,99430.84
2022-11-17T23:58:00.929Z,99432.78
